createdAt,value
2018-08-10T00:00:11.742Z,1022.14740186
2018-08-10T00:00:24.276Z,1022.14740186
2018-08-10T00:00:36.751Z,1022.14740186
2018-08-10T00:00:49.192Z,1022.14740186
2018-08-10T00:01:01.708Z,1022.11353798
2018-08-10T00:01:14.243Z,1022.11353798
2018-08-10T00:01:26.815Z,1022.11353798
2018-08-10T00:01:39.361Z,1022.11353798
2018-08-10T00:01:51.894Z,1022.11353798
2018-08-10T00:02:04.426Z,1022.14740186
2018-08-10T00:02:16.950Z,1022.14740186
2018-08-10T00:02:29.550Z,1022.14740186
2018-08-10T00:02:42.080Z,1022.14740186
2018-08-10T00:02:54.596Z,1022.14740186
2018-08-10T00:03:07.126Z,1022.14740186
2018-08-10T00:03:19.662Z,1022.14740186
2018-08-10T00:03:32.209Z,1022.14740186
2018-08-10T00:03:44.730Z,1022.14740186
2018-08-10T00:03:57.232Z,1022.14740186
2018-08-10T00:04:09.873Z,1022.04581021
2018-08-10T00:04:22.459Z,1022.04581021
2018-08-10T00:04:34.988Z,1022.04581021
2018-08-10T00:04:47.516Z,1022.04581021
2018-08-10T00:05:00.034Z,1022.04581021
2018-08-10T00:05:12.550Z,1022.04581021
2018-08-10T00:05:25.098Z,1022.04581021
2018-08-10T00:05:37.646Z,1022.04581021
2018-08-10T00:05:50.199Z,1022.04581021
2018-08-10T00:06:02.792Z,1022.2489935
2018-08-10T00:06:15.322Z,1022.2489935
2018-08-10T00:06:27.839Z,1022.2489935
2018-08-10T00:06:40.354Z,1022.2489935
2018-08-10T00:06:52.865Z,1022.2489935
2018-08-10T00:07:05.427Z,1022.28285738
2018-08-10T00:07:17.955Z,1022.28285738
2018-08-10T00:07:30.563Z,1022.28285738
2018-08-10T00:07:43.121Z,1022.28285738
2018-08-10T00:07:55.643Z,1022.28285738
2018-08-10T00:08:08.177Z,1022.14740186
2018-08-10T00:08:20.886Z,1022.14740186
2018-08-10T00:08:33.412Z,1022.14740186
2018-08-10T00:08:46.048Z,1022.14740186
2018-08-10T00:08:59.381Z,1022.2489935
2018-08-10T00:09:12.055Z,1022.2489935
2018-08-10T00:09:24.588Z,1022.2489935
2018-08-10T00:09:37.122Z,1022.2489935
2018-08-10T00:09:49.653Z,1022.2489935
2018-08-10T00:10:02.175Z,1022.18126574
2018-08-10T00:10:14.697Z,1022.18126574
2018-08-10T00:10:27.227Z,1022.18126574
2018-08-10T00:10:39.755Z,1022.18126574
2018-08-10T00:10:52.319Z,1022.18126574
2018-08-10T00:11:04.856Z,1022.21512962
2018-08-10T00:11:17.389Z,1022.21512962
2018-08-10T00:11:29.923Z,1022.21512962
2018-08-10T00:11:42.489Z,1022.21512962
2018-08-10T00:11:55.004Z,1022.21512962
2018-08-10T00:12:07.562Z,1022.04581021
2018-08-10T00:12:20.083Z,1022.04581021
2018-08-10T00:12:32.609Z,1022.04581021
2018-08-10T00:12:45.143Z,1022.04581021
2018-08-10T00:12:57.654Z,1022.04581021
2018-08-10T00:13:10.186Z,1022.2489935
2018-08-10T00:13:22.805Z,1022.2489935
2018-08-10T00:13:35.325Z,1022.2489935
2018-08-10T00:13:47.833Z,1022.2489935
2018-08-10T00:14:00.507Z,1022.28285738
2018-08-10T00:14:13.059Z,1022.28285738
2018-08-10T00:14:25.586Z,1022.28285738
2018-08-10T00:14:38.117Z,1022.28285738
2018-08-10T00:14:50.634Z,1022.28285738
2018-08-10T00:15:03.158Z,1022.28285738
2018-08-10T00:15:15.681Z,1022.28285738
2018-08-10T00:15:28.216Z,1022.28285738
2018-08-10T00:15:40.736Z,1022.28285738
2018-08-10T00:15:53.267Z,1022.28285738
2018-08-10T00:16:05.821Z,1022.28285738
2018-08-10T00:16:18.403Z,1022.28285738
2018-08-10T00:16:30.929Z,1022.28285738
2018-08-10T00:16:43.474Z,1022.28285738
2018-08-10T00:16:56.080Z,1022.28285738
2018-08-10T00:17:08.598Z,1022.31672127
2018-08-10T00:17:21.149Z,1022.31672127
2018-08-10T00:17:33.684Z,1022.31672127
2018-08-10T00:17:46.225Z,1022.31672127
2018-08-10T00:17:58.748Z,1022.31672127
2018-08-10T00:18:11.304Z,1022.21512962
2018-08-10T00:18:23.886Z,1022.21512962
2018-08-10T00:18:36.589Z,1022.21512962
2018-08-10T00:18:49.120Z,1022.21512962
2018-08-10T00:19:01.703Z,1022.28285738
2018-08-10T00:19:14.224Z,1022.28285738
2018-08-10T00:19:26.779Z,1022.28285738
2018-08-10T00:19:39.313Z,1022.28285738
2018-08-10T00:19:51.858Z,1022.28285738
2018-08-10T00:20:04.370Z,1022.28285738
2018-08-10T00:20:16.934Z,1022.28285738
2018-08-10T00:20:29.463Z,1022.28285738
2018-08-10T00:20:41.982Z,1022.28285738
2018-08-10T00:20:54.487Z,1022.28285738
2018-08-10T00:21:06.992Z,1022.2489935
2018-08-10T00:21:19.522Z,1022.2489935
2018-08-10T00:21:32.037Z,1022.2489935
2018-08-10T00:21:44.594Z,1022.2489935
2018-08-10T00:21:57.119Z,1022.2489935
2018-08-10T00:22:09.736Z,1022.31672127
2018-08-10T00:22:22.253Z,1022.31672127
2018-08-10T00:22:34.785Z,1022.31672127
2018-08-10T00:22:47.294Z,1022.31672127
2018-08-10T00:22:59.815Z,1022.31672127
2018-08-10T00:23:12.324Z,1022.31672127
2018-08-10T00:23:24.848Z,1022.31672127
2018-08-10T00:23:37.380Z,1022.31672127
2018-08-10T00:23:49.912Z,1022.31672127
2018-08-10T00:24:02.410Z,1022.28285738
2018-08-10T00:24:14.946Z,1022.28285738
2018-08-10T00:24:27.460Z,1022.28285738
2018-08-10T00:24:39.996Z,1022.28285738
2018-08-10T00:24:52.498Z,1022.28285738
2018-08-10T00:25:05.024Z,1022.38444903
2018-08-10T00:25:17.571Z,1022.38444903
2018-08-10T00:25:30.102Z,1022.38444903
2018-08-10T00:25:42.622Z,1022.38444903
2018-08-10T00:25:55.135Z,1022.38444903
2018-08-10T00:26:07.649Z,1022.41831291
2018-08-10T00:26:20.201Z,1022.41831291
2018-08-10T00:26:32.713Z,1022.41831291
2018-08-10T00:26:45.347Z,1022.41831291
2018-08-10T00:26:57.861Z,1022.41831291
2018-08-10T00:27:10.547Z,1022.31672127
2018-08-10T00:27:23.097Z,1022.31672127
2018-08-10T00:27:35.625Z,1022.31672127
2018-08-10T00:27:48.291Z,1022.31672127
2018-08-10T00:28:00.837Z,1022.35058515
2018-08-10T00:28:13.385Z,1022.35058515
2018-08-10T00:28:25.893Z,1022.35058515
2018-08-10T00:28:38.423Z,1022.35058515
2018-08-10T00:28:50.945Z,1022.35058515
2018-08-10T00:29:03.459Z,1022.35058515
2018-08-10T00:29:15.967Z,1022.35058515
2018-08-10T00:29:28.612Z,1022.35058515
2018-08-10T00:29:41.143Z,1022.35058515
2018-08-10T00:29:53.666Z,1022.35058515
2018-08-10T00:30:06.186Z,1022.38444903
2018-08-10T00:30:18.721Z,1022.38444903
2018-08-10T00:30:31.236Z,1022.38444903
2018-08-10T00:30:43.897Z,1022.38444903
2018-08-10T00:30:56.418Z,1022.38444903
2018-08-10T00:31:08.938Z,1022.45217679
2018-08-10T00:31:21.470Z,1022.45217679
2018-08-10T00:31:34.014Z,1022.45217679
2018-08-10T00:31:46.521Z,1022.45217679
2018-08-10T00:34:04.872Z,1022.48604067
2018-08-10T00:34:17.379Z,1022.48604067
2018-08-10T00:34:29.899Z,1022.48604067
2018-08-10T00:34:42.430Z,1022.48604067
2018-08-10T00:34:54.967Z,1022.48604067
2018-08-10T00:35:07.486Z,1022.45217679
2018-08-10T00:35:20.029Z,1022.45217679
2018-08-10T00:35:32.539Z,1022.45217679
2018-08-10T00:35:45.050Z,1022.45217679
2018-08-10T00:35:57.587Z,1022.45217679
2018-08-10T00:36:10.088Z,1022.48604067
2018-08-10T00:36:22.606Z,1022.48604067
2018-08-10T00:36:35.119Z,1022.48604067
2018-08-10T00:36:47.637Z,1022.48604067
2018-08-10T00:37:00.151Z,1022.55376844
2018-08-10T00:37:12.665Z,1022.55376844
2018-08-10T00:37:25.165Z,1022.55376844
2018-08-10T00:37:37.692Z,1022.55376844
2018-08-10T00:37:51.218Z,1022.55376844
2018-08-10T00:38:03.740Z,1022.51990455
2018-08-10T00:38:16.263Z,1022.51990455
2018-08-10T00:38:28.799Z,1022.51990455
2018-08-10T00:38:41.336Z,1022.51990455
2018-08-10T00:38:53.843Z,1022.51990455
2018-08-10T00:39:06.347Z,1022.55376844
2018-08-10T00:39:18.855Z,1022.55376844
2018-08-10T00:39:31.519Z,1022.55376844
2018-08-10T00:39:44.055Z,1022.55376844
2018-08-10T00:39:56.564Z,1022.55376844
2018-08-10T00:40:09.155Z,1022.48604067
2018-08-10T00:40:21.698Z,1022.48604067
2018-08-10T00:40:34.222Z,1022.48604067
2018-08-10T00:40:46.749Z,1022.48604067
2018-08-10T00:40:59.278Z,1022.55376844
2018-08-10T00:41:11.819Z,1022.55376844
2018-08-10T00:41:24.337Z,1022.55376844
2018-08-10T00:41:36.931Z,1022.55376844
2018-08-10T00:41:49.486Z,1022.55376844
2018-08-10T00:42:01.988Z,1022.55376844
2018-08-10T00:42:14.569Z,1022.55376844
2018-08-10T00:42:27.119Z,1022.55376844
2018-08-10T00:42:39.693Z,1022.55376844
2018-08-10T00:42:52.240Z,1022.55376844
2018-08-10T00:43:04.753Z,1022.55376844
2018-08-10T00:43:17.292Z,1022.55376844
2018-08-10T00:43:29.821Z,1022.55376844
2018-08-10T00:43:42.434Z,1022.55376844
2018-08-10T00:43:54.960Z,1022.55376844
2018-08-10T00:44:07.461Z,1022.6214962
2018-08-10T00:44:19.961Z,1022.6214962
2018-08-10T00:44:32.555Z,1022.6214962
2018-08-10T00:44:45.082Z,1022.6214962
2018-08-10T00:44:57.608Z,1022.6214962
2018-08-10T00:45:10.179Z,1022.58763232
2018-08-10T00:45:22.704Z,1022.58763232
2018-08-10T00:45:35.222Z,1022.58763232
2018-08-10T00:45:47.755Z,1022.58763232
2018-08-10T00:46:00.287Z,1022.65536008
2018-08-10T00:46:12.861Z,1022.65536008
2018-08-10T00:46:25.382Z,1022.65536008
2018-08-10T00:46:37.901Z,1022.65536008
2018-08-10T00:46:50.423Z,1022.65536008
2018-08-10T00:47:02.936Z,1022.65536008
2018-08-10T00:47:15.440Z,1022.65536008
2018-08-10T00:47:27.976Z,1022.65536008
2018-08-10T00:47:40.494Z,1022.65536008
2018-08-10T00:47:53.043Z,1022.65536008
2018-08-10T00:48:05.558Z,1022.68922396
2018-08-10T00:48:18.107Z,1022.68922396
2018-08-10T00:48:30.627Z,1022.68922396
2018-08-10T00:48:43.147Z,1022.68922396
2018-08-10T00:48:55.717Z,1022.68922396
2018-08-10T00:49:08.435Z,1022.72308784
2018-08-10T00:49:20.946Z,1022.72308784
2018-08-10T00:49:33.488Z,1022.72308784
2018-08-10T00:49:46.061Z,1022.72308784
2018-08-10T00:49:58.564Z,1022.72308784
2018-08-10T00:50:11.075Z,1022.65536008
2018-08-10T00:50:23.776Z,1022.65536008
2018-08-10T00:50:36.309Z,1022.65536008
2018-08-10T00:50:48.840Z,1022.65536008
2018-08-10T00:51:01.350Z,1022.65536008
2018-08-10T00:51:13.874Z,1022.65536008
2018-08-10T00:51:26.373Z,1022.65536008
2018-08-10T00:51:39.022Z,1022.65536008
2018-08-10T00:51:51.528Z,1022.65536008
2018-08-10T00:52:04.047Z,1022.68922396
2018-08-10T00:52:16.571Z,1022.68922396
2018-08-10T00:52:29.304Z,1022.68922396
2018-08-10T00:52:41.817Z,1022.68922396
2018-08-10T00:52:54.333Z,1022.68922396
2018-08-10T00:53:06.864Z,1022.65536008
2018-08-10T00:53:19.369Z,1022.65536008
2018-08-10T00:53:31.881Z,1022.65536008
2018-08-10T00:53:44.384Z,1022.65536008
2018-08-10T00:53:56.907Z,1022.65536008
2018-08-10T00:54:09.439Z,1022.75695173
2018-08-10T00:54:21.962Z,1022.75695173
2018-08-10T00:54:34.493Z,1022.75695173
2018-08-10T00:54:46.989Z,1022.75695173
2018-08-10T00:54:59.498Z,1022.72308784
2018-08-10T00:55:12.021Z,1022.72308784
2018-08-10T00:55:24.606Z,1022.72308784
2018-08-10T00:55:37.152Z,1022.72308784
2018-08-10T00:55:49.688Z,1022.72308784
2018-08-10T00:56:02.191Z,1022.75695173
2018-08-10T00:56:14.723Z,1022.75695173
2018-08-10T00:56:27.239Z,1022.75695173
2018-08-10T00:56:39.836Z,1022.75695173
2018-08-10T00:56:52.534Z,1022.75695173
2018-08-10T00:57:05.034Z,1022.68922396
2018-08-10T00:57:17.640Z,1022.68922396
2018-08-10T00:57:30.140Z,1022.68922396
2018-08-10T00:57:42.650Z,1022.68922396
2018-08-10T00:57:55.170Z,1022.68922396
2018-08-10T00:58:07.755Z,1022.75695173
2018-08-10T00:58:20.280Z,1022.75695173
2018-08-10T00:58:32.807Z,1022.75695173
2018-08-10T00:58:45.327Z,1022.75695173
2018-08-10T00:58:57.857Z,1022.75695173
2018-08-10T00:59:10.386Z,1022.75695173
2018-08-10T00:59:22.900Z,1022.75695173
2018-08-10T00:59:35.451Z,1022.75695173
2018-08-10T00:59:47.948Z,1022.75695173
2018-08-10T01:00:00.462Z,1022.75695173
2018-08-10T01:00:12.990Z,1022.75695173
2018-08-10T01:00:25.516Z,1022.75695173
2018-08-10T01:00:38.050Z,1022.75695173
2018-08-10T01:00:50.604Z,1022.75695173
2018-08-10T01:01:03.172Z,1022.72308784
2018-08-10T01:01:15.700Z,1022.72308784
2018-08-10T01:01:28.273Z,1022.72308784
2018-08-10T01:01:40.794Z,1022.72308784
2018-08-10T01:01:53.356Z,1022.72308784
2018-08-10T01:02:05.888Z,1022.82467949
2018-08-10T01:02:18.401Z,1022.82467949
2018-08-10T01:02:31.033Z,1022.82467949
2018-08-10T01:02:43.552Z,1022.82467949
2018-08-10T01:02:56.068Z,1022.82467949
2018-08-10T01:03:08.594Z,1022.79081561
2018-08-10T01:03:21.109Z,1022.79081561
2018-08-10T01:03:33.639Z,1022.79081561
2018-08-10T01:03:46.146Z,1022.79081561
2018-08-10T01:03:58.662Z,1022.79081561
2018-08-10T01:04:11.344Z,1022.79081561
2018-08-10T01:04:23.863Z,1022.79081561
2018-08-10T01:04:36.383Z,1022.79081561
2018-08-10T01:04:48.897Z,1022.79081561
2018-08-10T01:05:01.421Z,1022.82467949
2018-08-10T01:05:13.994Z,1022.82467949
2018-08-10T01:05:26.549Z,1022.82467949
2018-08-10T01:05:39.077Z,1022.82467949
2018-08-10T01:05:51.597Z,1022.82467949
2018-08-10T01:06:04.102Z,1022.85854337
2018-08-10T01:06:16.785Z,1022.85854337
2018-08-10T01:06:29.313Z,1022.85854337
2018-08-10T01:06:41.829Z,1022.85854337
2018-08-10T01:06:54.331Z,1022.85854337
2018-08-10T01:07:06.863Z,1022.89240725
2018-08-10T01:07:19.421Z,1022.89240725
2018-08-10T01:07:31.929Z,1022.89240725
2018-08-10T01:07:44.470Z,1022.89240725
2018-08-10T01:07:57.031Z,1022.89240725
2018-08-10T01:08:09.559Z,1022.82467949
2018-08-10T01:08:22.243Z,1022.82467949
2018-08-10T01:08:34.753Z,1022.82467949
2018-08-10T01:08:47.275Z,1022.82467949
2018-08-10T01:08:59.810Z,1022.82467949
2018-08-10T01:09:12.363Z,1022.82467949
2018-08-10T01:09:24.889Z,1022.82467949
2018-08-10T01:09:37.435Z,1022.82467949
2018-08-10T01:09:49.961Z,1022.82467949
2018-08-10T01:10:02.532Z,1022.82467949
2018-08-10T01:10:15.046Z,1022.82467949
2018-08-10T01:10:27.573Z,1022.82467949
2018-08-10T01:10:40.095Z,1022.82467949
2018-08-10T01:10:52.589Z,1022.82467949
2018-08-10T01:11:05.095Z,1022.85854337
2018-08-10T01:11:17.647Z,1022.85854337
2018-08-10T01:11:30.166Z,1022.85854337
2018-08-10T01:11:42.691Z,1022.85854337
2018-08-10T01:11:55.248Z,1022.85854337
2018-08-10T01:12:07.754Z,1022.85854337
2018-08-10T01:12:20.273Z,1022.85854337
2018-08-10T01:12:32.781Z,1022.85854337
2018-08-10T01:12:45.301Z,1022.85854337
2018-08-10T01:12:57.836Z,1022.85854337
2018-08-10T01:13:10.599Z,1022.89240725
2018-08-10T01:13:24.465Z,1022.89240725
2018-08-10T01:13:38.484Z,1022.89240725
2018-08-10T01:13:51.234Z,1022.89240725
2018-08-10T01:14:03.744Z,1022.89240725
2018-08-10T01:14:16.295Z,1022.89240725
2018-08-10T01:14:28.905Z,1022.89240725
2018-08-10T01:14:41.420Z,1022.89240725
2018-08-10T01:14:53.968Z,1022.89240725
2018-08-10T01:15:06.564Z,1022.92627113
2018-08-10T01:15:19.103Z,1022.92627113
2018-08-10T01:15:31.642Z,1022.92627113
2018-08-10T01:15:44.176Z,1022.92627113
2018-08-10T01:15:56.692Z,1022.92627113
2018-08-10T01:16:09.229Z,1022.92627113
2018-08-10T01:16:21.754Z,1022.92627113
2018-08-10T01:16:34.280Z,1022.92627113
2018-08-10T01:16:46.802Z,1022.92627113
2018-08-10T01:16:59.520Z,1022.9939989
2018-08-10T01:17:12.024Z,1022.9939989
2018-08-10T01:17:24.554Z,1022.9939989
2018-08-10T01:17:37.084Z,1022.9939989
2018-08-10T01:17:49.644Z,1022.9939989
2018-08-10T01:18:02.166Z,1022.89240725
2018-08-10T01:18:14.687Z,1022.89240725
2018-08-10T01:18:27.225Z,1022.89240725
2018-08-10T01:18:39.762Z,1022.89240725
2018-08-10T01:18:52.291Z,1022.89240725
2018-08-10T01:19:05.283Z,1022.96013502
2018-08-10T01:19:19.092Z,1022.96013502
2018-08-10T01:19:33.262Z,1022.96013502
2018-08-10T01:19:45.790Z,1022.96013502
2018-08-10T01:19:58.311Z,1022.96013502
2018-08-10T01:20:10.842Z,1022.89240725
2018-08-10T01:20:23.371Z,1022.89240725
2018-08-10T01:20:35.892Z,1022.89240725
2018-08-10T01:20:48.399Z,1022.89240725
2018-08-10T01:21:00.932Z,1022.89240725
2018-08-10T01:21:13.466Z,1022.89240725
2018-08-10T01:21:26.014Z,1022.89240725
2018-08-10T01:21:38.548Z,1022.89240725
2018-08-10T01:21:51.056Z,1022.89240725
2018-08-10T01:22:03.953Z,1022.89240725
2018-08-10T01:22:16.464Z,1022.89240725
2018-08-10T01:22:28.979Z,1022.89240725
2018-08-10T01:22:41.503Z,1022.89240725
2018-08-10T01:22:54.018Z,1022.89240725
2018-08-10T01:23:06.519Z,1022.92627113
2018-08-10T01:23:19.033Z,1022.92627113
2018-08-10T01:23:31.564Z,1022.92627113
2018-08-10T01:23:44.073Z,1022.92627113
2018-08-10T01:23:56.577Z,1022.92627113
2018-08-10T01:24:09.095Z,1022.92627113
2018-08-10T01:24:21.711Z,1022.92627113
2018-08-10T01:24:34.229Z,1022.92627113
2018-08-10T01:24:46.745Z,1022.92627113
2018-08-10T01:24:59.282Z,1022.96013502
2018-08-10T01:25:11.816Z,1022.96013502
2018-08-10T01:25:24.499Z,1022.96013502
2018-08-10T01:25:37.065Z,1022.96013502
2018-08-10T01:25:49.579Z,1022.96013502
2018-08-10T01:26:02.085Z,1022.96013502
2018-08-10T01:26:14.603Z,1022.96013502
2018-08-10T01:26:27.147Z,1022.96013502
2018-08-10T01:26:39.679Z,1022.96013502
2018-08-10T01:26:52.241Z,1022.96013502
2018-08-10T01:27:04.763Z,1022.96013502
2018-08-10T01:27:17.617Z,1022.96013502
2018-08-10T01:27:30.143Z,1022.96013502
2018-08-10T01:27:42.695Z,1022.96013502
2018-08-10T01:27:55.196Z,1022.96013502
2018-08-10T01:28:07.730Z,1023.02786278
2018-08-10T01:28:20.719Z,1023.02786278
2018-08-10T01:28:34.663Z,1023.02786278
2018-08-10T01:28:48.399Z,1023.02786278
2018-08-10T01:29:02.941Z,1022.89240725
2018-08-10T01:29:15.490Z,1022.89240725
2018-08-10T01:29:28.199Z,1022.89240725
2018-08-10T01:29:40.718Z,1022.89240725
2018-08-10T01:29:53.228Z,1022.89240725
2018-08-10T01:30:05.773Z,1022.9939989
2018-08-10T01:30:18.296Z,1022.9939989
2018-08-10T01:30:30.855Z,1022.9939989
2018-08-10T01:30:43.369Z,1022.9939989
2018-08-10T01:30:56.062Z,1022.9939989
2018-08-10T01:31:08.587Z,1023.02786278
2018-08-10T01:31:21.138Z,1023.02786278
2018-08-10T01:31:33.665Z,1023.02786278
2018-08-10T01:31:46.196Z,1023.02786278
2018-08-10T01:31:58.695Z,1023.02786278
2018-08-10T01:32:11.200Z,1023.12945442
2018-08-10T01:32:23.743Z,1023.12945442
2018-08-10T01:32:36.441Z,1023.12945442
2018-08-10T01:32:48.968Z,1023.12945442
2018-08-10T01:33:01.497Z,1023.12945442
2018-08-10T01:33:14.041Z,1023.12945442
2018-08-10T01:33:26.567Z,1023.12945442
2018-08-10T01:33:39.085Z,1023.12945442
2018-08-10T01:33:51.787Z,1023.12945442
2018-08-10T01:34:04.318Z,1023.09559054
2018-08-10T01:34:16.830Z,1023.09559054
2018-08-10T01:34:29.329Z,1023.09559054
2018-08-10T01:34:41.836Z,1023.09559054
2018-08-10T01:34:54.358Z,1023.09559054
2018-08-10T01:35:06.891Z,1023.19718219
2018-08-10T01:35:19.397Z,1023.19718219
2018-08-10T01:35:31.917Z,1023.19718219
2018-08-10T01:35:44.462Z,1023.19718219
2018-08-10T01:35:57.038Z,1023.19718219
2018-08-10T01:36:09.557Z,1023.1633183
2018-08-10T01:36:22.079Z,1023.1633183
2018-08-10T01:36:34.620Z,1023.1633183
2018-08-10T01:36:47.136Z,1023.1633183
2018-08-10T01:36:59.645Z,1023.1633183
2018-08-10T01:37:12.153Z,1023.1633183
2018-08-10T01:37:24.655Z,1023.1633183
2018-08-10T01:37:37.155Z,1023.1633183
2018-08-10T01:37:49.668Z,1023.1633183
2018-08-10T01:38:02.237Z,1023.09559054
2018-08-10T01:38:14.788Z,1023.09559054
2018-08-10T01:38:27.285Z,1023.09559054
2018-08-10T01:38:39.802Z,1023.09559054
2018-08-10T01:38:52.317Z,1023.09559054
2018-08-10T01:39:04.827Z,1023.1633183
2018-08-10T01:39:17.376Z,1023.1633183
2018-08-10T01:39:30.044Z,1023.1633183
2018-08-10T01:39:42.578Z,1023.1633183
2018-08-10T01:39:55.096Z,1023.1633183
2018-08-10T01:40:07.604Z,1023.09559054
2018-08-10T01:40:20.130Z,1023.09559054
2018-08-10T01:40:32.656Z,1023.09559054
2018-08-10T01:40:45.204Z,1023.09559054
2018-08-10T01:40:57.732Z,1023.09559054
2018-08-10T01:41:10.250Z,1023.09559054
2018-08-10T01:41:22.772Z,1023.09559054
2018-08-10T01:41:35.353Z,1023.09559054
2018-08-10T01:41:47.866Z,1023.09559054
2018-08-10T01:42:00.382Z,1023.26490995
2018-08-10T01:42:12.889Z,1023.26490995
2018-08-10T01:42:25.414Z,1023.26490995
2018-08-10T01:42:37.926Z,1023.26490995
2018-08-10T01:42:50.426Z,1023.26490995
2018-08-10T01:43:02.964Z,1023.19718219
2018-08-10T01:43:15.491Z,1023.19718219
2018-08-10T01:43:28.037Z,1023.19718219
2018-08-10T01:43:40.531Z,1023.19718219
2018-08-10T01:43:53.094Z,1023.19718219
2018-08-10T01:44:05.598Z,1023.26490995
2018-08-10T01:44:18.132Z,1023.26490995
2018-08-10T01:44:30.641Z,1023.26490995
2018-08-10T01:44:43.164Z,1023.26490995
2018-08-10T01:44:55.672Z,1023.26490995
2018-08-10T01:45:08.177Z,1023.23104607
2018-08-10T01:45:20.705Z,1023.23104607
2018-08-10T01:45:33.218Z,1023.23104607
2018-08-10T01:45:45.764Z,1023.23104607
2018-08-10T01:45:58.322Z,1023.23104607
2018-08-10T01:46:10.924Z,1023.26490995
2018-08-10T01:46:23.448Z,1023.26490995
2018-08-10T01:46:35.952Z,1023.26490995
2018-08-10T01:46:48.506Z,1023.26490995
2018-08-10T01:47:01.034Z,1023.19718219
2018-08-10T01:47:13.553Z,1023.19718219
2018-08-10T01:47:26.080Z,1023.19718219
2018-08-10T01:47:38.630Z,1023.19718219
2018-08-10T01:47:51.145Z,1023.19718219
2018-08-10T01:48:03.679Z,1023.19718219
2018-08-10T01:48:16.208Z,1023.19718219
2018-08-10T01:48:28.716Z,1023.19718219
2018-08-10T01:48:41.225Z,1023.19718219
2018-08-10T01:48:53.736Z,1023.19718219
2018-08-10T01:49:06.395Z,1023.26490995
2018-08-10T01:49:19.087Z,1023.26490995
2018-08-10T01:49:31.620Z,1023.26490995
2018-08-10T01:49:44.141Z,1023.26490995
2018-08-10T01:49:56.663Z,1023.26490995
2018-08-10T01:50:09.212Z,1023.26490995
2018-08-10T01:50:21.764Z,1023.26490995
2018-08-10T01:50:34.291Z,1023.26490995
2018-08-10T01:50:46.840Z,1023.26490995
2018-08-10T01:50:59.375Z,1023.26490995
2018-08-10T01:51:11.875Z,1023.26490995
2018-08-10T01:51:24.393Z,1023.26490995
2018-08-10T01:51:36.930Z,1023.26490995
2018-08-10T01:51:49.621Z,1023.26490995
2018-08-10T01:52:02.117Z,1023.36650159
2018-08-10T01:52:14.639Z,1023.36650159
2018-08-10T01:52:27.215Z,1023.36650159
2018-08-10T01:52:39.731Z,1023.36650159
2018-08-10T01:52:52.255Z,1023.36650159
2018-08-10T01:53:04.764Z,1023.43422936
2018-08-10T01:53:17.298Z,1023.43422936
2018-08-10T01:53:29.811Z,1023.43422936
2018-08-10T01:53:42.352Z,1023.43422936
2018-08-10T01:53:54.870Z,1023.43422936
2018-08-10T01:54:07.396Z,1023.26490995
2018-08-10T01:54:19.905Z,1023.26490995
2018-08-10T01:54:32.457Z,1023.26490995
2018-08-10T01:54:44.967Z,1023.26490995
2018-08-10T01:54:57.478Z,1023.26490995
2018-08-10T01:55:10.000Z,1023.33263771
2018-08-10T01:55:22.538Z,1023.33263771
2018-08-10T01:55:35.074Z,1023.33263771
2018-08-10T01:55:47.623Z,1023.33263771
2018-08-10T01:56:00.141Z,1023.40036548
2018-08-10T01:56:12.669Z,1023.40036548
2018-08-10T01:56:25.233Z,1023.40036548
2018-08-10T01:56:37.816Z,1023.40036548
2018-08-10T01:56:50.553Z,1023.40036548
2018-08-10T01:57:03.081Z,1023.40036548
2018-08-10T01:57:15.584Z,1023.40036548
2018-08-10T01:57:28.113Z,1023.40036548
2018-08-10T01:57:40.618Z,1023.40036548
2018-08-10T01:57:53.136Z,1023.40036548
2018-08-10T01:58:05.659Z,1023.46809324
2018-08-10T01:58:18.183Z,1023.46809324
2018-08-10T01:58:30.719Z,1023.46809324
2018-08-10T01:58:43.265Z,1023.46809324
2018-08-10T01:58:55.784Z,1023.46809324
2018-08-10T01:59:08.297Z,1023.43422936
2018-08-10T01:59:20.809Z,1023.43422936
2018-08-10T01:59:33.363Z,1023.43422936
2018-08-10T01:59:45.873Z,1023.43422936
2018-08-10T01:59:58.390Z,1023.43422936
2018-08-10T02:00:11.008Z,1023.36650159
2018-08-10T02:00:23.552Z,1023.36650159
2018-08-10T02:00:36.094Z,1023.36650159
2018-08-10T02:00:48.644Z,1023.36650159
2018-08-10T02:01:01.203Z,1023.40036548
2018-08-10T02:01:13.741Z,1023.40036548
2018-08-10T02:01:26.331Z,1023.40036548
2018-08-10T02:01:38.878Z,1023.40036548
2018-08-10T02:01:51.384Z,1023.40036548
2018-08-10T02:02:03.897Z,1023.46809324
2018-08-10T02:02:16.398Z,1023.46809324
2018-08-10T02:02:29.060Z,1023.46809324
2018-08-10T02:02:41.563Z,1023.46809324
2018-08-10T02:02:54.059Z,1023.46809324
2018-08-10T02:03:06.570Z,1023.36650159
2018-08-10T02:03:19.091Z,1023.36650159
2018-08-10T02:03:31.626Z,1023.36650159
2018-08-10T02:03:44.160Z,1023.36650159
2018-08-10T02:03:56.684Z,1023.36650159
2018-08-10T02:04:09.366Z,1023.46809324
2018-08-10T02:04:21.905Z,1023.46809324
2018-08-10T02:04:34.448Z,1023.46809324
2018-08-10T02:04:46.960Z,1023.46809324
2018-08-10T02:04:59.490Z,1023.535821
2018-08-10T02:05:12.078Z,1023.535821
2018-08-10T02:05:24.628Z,1023.535821
2018-08-10T02:05:37.202Z,1023.535821
2018-08-10T02:05:49.740Z,1023.535821
2018-08-10T02:06:02.242Z,1023.56968488
2018-08-10T02:06:14.762Z,1023.56968488
2018-08-10T02:06:27.455Z,1023.56968488
2018-08-10T02:06:39.978Z,1023.56968488
2018-08-10T02:06:52.581Z,1023.56968488
2018-08-10T02:07:05.074Z,1023.56968488
2018-08-10T02:07:17.599Z,1023.56968488
2018-08-10T02:07:30.125Z,1023.56968488
2018-08-10T02:07:42.653Z,1023.56968488
2018-08-10T02:07:55.172Z,1023.56968488
2018-08-10T02:08:07.683Z,1023.535821
2018-08-10T02:08:20.320Z,1023.535821
2018-08-10T02:08:32.869Z,1023.535821
2018-08-10T02:08:45.418Z,1023.535821
2018-08-10T02:08:57.933Z,1023.535821
2018-08-10T02:09:10.449Z,1023.67127653
2018-08-10T02:09:22.991Z,1023.67127653
2018-08-10T02:09:35.511Z,1023.67127653
2018-08-10T02:09:48.063Z,1023.67127653
2018-08-10T02:10:00.597Z,1023.63741265
2018-08-10T02:10:13.162Z,1023.63741265
2018-08-10T02:10:25.674Z,1023.63741265
2018-08-10T02:10:38.332Z,1023.63741265
2018-08-10T02:10:50.869Z,1023.63741265
2018-08-10T02:11:03.404Z,1023.56968488